createdAt,value
2022-08-09T00:00:11.348Z,3.50
2022-08-09T00:02:42.852Z,3.67
2022-08-09T00:06:19.589Z,3.59
2022-08-09T00:08:10.197Z,3.58
2022-08-09T00:10:40.353Z,3.65
2022-08-09T00:13:17.198Z,3.50
2022-08-09T00:15:58.945Z,3.46
2022-08-09T00:18:27.319Z,3.42
2022-08-09T00:20:56.600Z,3.89
2022-08-09T00:23:55.199Z,3.79
2022-08-09T00:26:14.592Z,3.52
2022-08-09T00:28:42.309Z,3.95
2022-08-09T00:31:56.884Z,3.86
2022-08-09T00:34:08.679Z,3.75
2022-08-09T00:36:40.025Z,3.58
2022-08-09T00:39:16.901Z,3.97
2022-08-09T00:44:14.737Z,3.73
2022-08-09T00:44:47.005Z,3.61
2022-08-09T00:47:15.542Z,3.63
2022-08-09T00:49:52.527Z,3.48
2022-08-09T00:52:30.700Z,3.80
2022-08-09T00:55:00.313Z,3.53
2022-08-09T00:57:33.692Z,3.69
2022-08-09T01:00:21.901Z,3.42
2022-08-09T01:02:58.055Z,3.62
2022-08-09T01:05:51.910Z,4.03
2022-08-09T01:08:31.340Z,3.79
2022-08-09T01:11:17.142Z,3.82
2022-08-09T01:14:00.193Z,3.85
2022-08-09T01:16:36.570Z,3.66
2022-08-09T01:19:39.593Z,3.83
2022-08-09T01:22:54.670Z,3.87
2022-08-09T01:25:42.314Z,3.72
2022-08-09T01:28:20.982Z,3.64
2022-08-09T01:30:53.387Z,3.89
2022-08-09T01:33:26.787Z,3.78
2022-08-09T01:36:01.690Z,3.70
2022-08-09T01:38:35.655Z,3.72
2022-08-09T01:41:13.422Z,3.75
2022-08-09T01:43:52.059Z,3.89
2022-08-09T01:46:26.550Z,3.88
2022-08-09T01:49:00.375Z,3.63
2022-08-09T01:51:44.553Z,3.87
2022-08-09T01:54:25.718Z,4.01
2022-08-09T01:56:56.921Z,3.68
2022-08-09T01:59:32.495Z,3.93
2022-08-09T02:02:03.123Z,4.27
2022-08-09T02:04:34.246Z,4.09
2022-08-09T02:07:06.069Z,4.11
2022-08-09T02:09:42.084Z,3.85
2022-08-09T02:12:21.208Z,4.03
2022-08-09T02:14:53.943Z,4.05
2022-08-09T02:17:55.064Z,4.10
2022-08-09T02:20:24.995Z,3.87
2022-08-09T02:23:01.292Z,4.18
2022-08-09T02:25:42.201Z,4.38
2022-08-09T02:28:19.923Z,4.34
2022-08-09T02:30:58.286Z,3.94
2022-08-09T02:33:58.751Z,4.14
2022-08-09T02:36:26.212Z,4.30
2022-08-09T02:38:58.217Z,4.31
2022-08-09T02:41:32.746Z,4.34
2022-08-09T02:44:13.651Z,4.27
2022-08-09T02:47:02.254Z,4.22
2022-08-09T02:49:41.581Z,4.45
2022-08-09T02:52:14.936Z,4.33
2022-08-09T02:54:54.171Z,4.27
2022-08-09T02:57:25.187Z,4.25
2022-08-09T03:00:11.347Z,4.37
2022-08-09T03:02:58.255Z,4.26
2022-08-09T03:05:34.429Z,4.39
2022-08-09T03:08:05.059Z,4.54
2022-08-09T03:10:35.027Z,4.64
2022-08-09T03:13:08.477Z,4.51
2022-08-09T03:16:04.379Z,4.46
2022-08-09T03:18:30.499Z,4.49
2022-08-09T03:21:02.162Z,4.44
2022-08-09T03:23:30.686Z,4.20
2022-08-09T03:26:03.591Z,4.67
2022-08-09T03:28:35.569Z,4.48
2022-08-09T03:31:10.153Z,4.50
2022-08-09T03:33:54.263Z,4.48
2022-08-09T03:36:27.406Z,4.77
2022-08-09T03:38:56.518Z,4.68
2022-08-09T03:41:29.751Z,4.32
2022-08-09T03:44:08.565Z,4.70
2022-08-09T03:46:36.851Z,4.61
2022-08-09T03:49:08.488Z,4.53
2022-08-09T03:51:55.267Z,4.50
2022-08-09T03:54:29.346Z,4.32
2022-08-09T03:57:00.915Z,4.19
2022-08-09T03:59:53.214Z,4.40
2022-08-09T04:02:19.913Z,4.66
2022-08-09T04:04:59.145Z,4.53
2022-08-09T04:07:47.393Z,4.69
2022-08-09T04:10:18.198Z,4.39
2022-08-09T04:12:51.070Z,4.62
2022-08-09T04:15:40.437Z,4.38
2022-08-09T04:18:09.645Z,4.87
2022-08-09T04:20:47.381Z,4.45
2022-08-09T04:23:16.712Z,4.85
2022-08-09T04:25:51.721Z,4.80
2022-08-09T04:28:36.446Z,4.48
2022-08-09T04:31:10.117Z,4.70
2022-08-09T04:33:47.013Z,4.84
2022-08-09T04:36:21.831Z,4.87
2022-08-09T04:38:51.170Z,5.05
2022-08-09T04:41:19.897Z,4.88
2022-08-09T04:44:05.319Z,4.87
2022-08-09T04:46:37.725Z,4.68
2022-08-09T04:49:40.683Z,4.90
2022-08-09T04:52:12.150Z,5.01
2022-08-09T04:54:46.408Z,5.01
2022-08-09T04:57:14.344Z,4.91
2022-08-09T04:59:42.651Z,4.95
2022-08-09T05:02:15.094Z,5.04
2022-08-09T05:04:42.760Z,4.74
2022-08-09T05:07:18.922Z,4.94
2022-08-09T05:09:50.074Z,4.90
2022-08-09T05:12:17.834Z,4.94
2022-08-09T05:14:48.639Z,4.78
2022-08-09T05:18:42.843Z,4.88
2022-08-09T05:20:06.753Z,5.02
2022-08-09T05:23:55.604Z,5.02
2022-08-09T05:25:24.004Z,5.13
2022-08-09T05:27:55.290Z,5.08
2022-08-09T05:30:23.245Z,5.20
2022-08-09T05:32:53.439Z,4.87
2022-08-09T05:35:21.992Z,5.08
2022-08-09T05:37:51.286Z,5.19
2022-08-09T05:40:19.734Z,4.97
2022-08-09T05:42:49.401Z,5.38
2022-08-09T05:45:17.350Z,5.31
2022-08-09T05:47:52.559Z,5.48
2022-08-09T05:50:25.854Z,5.18
2022-08-09T05:53:04.757Z,5.36
2022-08-09T05:55:32.411Z,5.06
2022-08-09T05:58:00.030Z,5.32
2022-08-09T06:00:30.367Z,5.59
2022-08-09T06:03:00.414Z,5.45
2022-08-09T06:05:50.028Z,5.40
2022-08-09T06:08:19.609Z,4.90
2022-08-09T06:10:53.489Z,5.41
2022-08-09T06:13:23.174Z,5.29
2022-08-09T06:15:52.793Z,5.43
2022-08-09T06:18:25.294Z,5.63
2022-08-09T06:20:57.210Z,5.64
2022-08-09T06:23:55.274Z,5.55
2022-08-09T06:26:21.071Z,5.32
2022-08-09T06:29:00.591Z,5.69
2022-08-09T06:31:40.553Z,5.50
2022-08-09T06:34:23.102Z,5.67
2022-08-09T06:36:58.963Z,5.53
2022-08-09T06:39:47.465Z,5.50
2022-08-09T06:42:17.648Z,5.35
2022-08-09T06:44:47.645Z,5.27
2022-08-09T06:47:23.799Z,5.30
2022-08-09T06:50:13.268Z,5.22
2022-08-09T06:52:39.529Z,5.36
2022-08-09T06:55:12.658Z,5.36
2022-08-09T06:58:02.197Z,5.40
2022-08-09T07:00:51.493Z,5.42
2022-08-09T07:03:16.337Z,5.64
2022-08-09T07:05:58.523Z,5.42
2022-08-09T07:08:31.311Z,5.82
2022-08-09T07:11:00.475Z,5.61
2022-08-09T07:13:45.147Z,5.74
2022-08-09T07:16:41.615Z,5.50
2022-08-09T07:19:08.494Z,5.50
2022-08-09T07:21:37.217Z,5.70
2022-08-09T07:24:07.983Z,5.49
2022-08-09T07:26:36.965Z,5.75
2022-08-09T07:29:12.232Z,5.61
2022-08-09T07:31:45.281Z,5.40
2022-08-09T07:34:20.683Z,6.00
2022-08-09T07:36:50.271Z,5.98
2022-08-09T07:39:40.811Z,5.74
2022-08-09T07:42:10.117Z,5.90
2022-08-09T07:44:51.779Z,5.94
2022-08-09T07:47:39.499Z,5.98
2022-08-09T07:50:10.766Z,6.11
2022-08-09T07:52:38.433Z,6.07
2022-08-09T07:55:09.589Z,6.25
2022-08-09T07:57:46.674Z,6.21
2022-08-09T08:00:20.795Z,6.13
2022-08-09T08:03:04.457Z,5.82
2022-08-09T08:05:53.598Z,5.93
2022-08-09T08:09:00.667Z,5.96
2022-08-09T08:12:11.111Z,5.71
2022-08-09T08:13:57.649Z,5.86
2022-08-09T08:16:31.595Z,6.10
2022-08-09T08:19:02.859Z,5.73
2022-08-09T08:21:31.683Z,6.15
2022-08-09T08:24:01.452Z,6.39
2022-08-09T08:26:55.201Z,6.26
2022-08-09T08:29:28.703Z,5.90
2022-08-09T08:32:07.333Z,6.36
2022-08-09T08:34:40.109Z,6.49
2022-08-09T08:37:15.515Z,6.24
2022-08-09T08:39:45.719Z,6.58
2022-08-09T08:42:16.643Z,6.11
2022-08-09T08:44:51.812Z,6.43
2022-08-09T08:47:20.817Z,6.37
2022-08-09T08:49:49.546Z,6.62
2022-08-09T08:52:52.567Z,6.26
2022-08-09T08:55:09.534Z,6.42
2022-08-09T08:57:38.113Z,6.58
2022-08-09T09:00:17.236Z,6.77
2022-08-09T09:03:04.477Z,6.78
2022-08-09T09:05:58.952Z,6.50
2022-08-09T09:08:30.538Z,5.84
2022-08-09T09:11:02.752Z,6.34
2022-08-09T09:13:42.198Z,6.22
2022-08-09T09:16:30.757Z,6.02
2022-08-09T09:22:05.269Z,6.66
2022-08-09T09:24:35.151Z,6.34
2022-08-09T09:27:08.564Z,6.44
2022-08-09T09:30:08.480Z,6.62
2022-08-09T09:32:34.643Z,6.60
2022-08-09T09:35:07.567Z,6.94
2022-08-09T09:37:40.158Z,6.79
2022-08-09T09:40:11.709Z,6.80
2022-08-09T09:42:42.960Z,6.30
2022-08-09T09:45:14.184Z,6.47
2022-08-09T09:47:56.695Z,6.81
2022-08-09T09:50:50.599Z,7.03
2022-08-09T09:53:21.716Z,6.39
2022-08-09T09:56:20.100Z,6.72
2022-08-09T09:58:59.020Z,6.63
2022-08-09T10:01:30.248Z,6.37
2022-08-09T10:04:16.312Z,6.46
2022-08-09T10:06:54.418Z,6.50
2022-08-09T10:09:24.109Z,6.63
2022-08-09T10:12:12.954Z,6.59
2022-08-09T10:14:48.517Z,6.57
2022-08-09T10:17:40.688Z,6.71
2022-08-09T10:20:27.350Z,6.44
2022-08-09T10:23:17.347Z,6.53
2022-08-09T10:26:07.185Z,6.38
2022-08-09T10:28:48.792Z,6.42
2022-08-09T10:34:32.653Z,6.60
2022-08-09T10:37:02.978Z,6.47
2022-08-09T10:39:40.391Z,6.03
2022-08-09T10:42:16.872Z,6.69
2022-08-09T10:44:53.603Z,6.47
2022-08-09T10:48:20.401Z,6.57
2022-08-09T10:50:48.639Z,6.57
2022-08-09T10:53:54.514Z,6.40
2022-08-09T10:56:25.463Z,6.27
2022-08-09T10:58:55.237Z,6.16
2022-08-09T11:03:16.530Z,6.53
2022-08-09T11:04:31.360Z,6.59
2022-08-09T11:07:57.448Z,6.60
2022-08-09T11:10:54.785Z,6.07
2022-08-09T11:13:50.066Z,6.48
2022-08-09T11:16:41.559Z,6.05
2022-08-09T11:19:11.520Z,6.33
2022-08-09T11:22:16.689Z,6.47
2022-08-09T11:25:08.505Z,6.00
2022-08-09T11:28:04.929Z,5.97
2022-08-09T11:30:35.939Z,6.10
2022-08-09T11:33:08.928Z,7.04
2022-08-09T11:35:49.116Z,5.88
2022-08-09T11:38:22.202Z,6.14
2022-08-09T11:40:57.066Z,6.19
2022-08-09T11:43:41.323Z,5.93
2022-08-09T11:46:10.245Z,6.07
2022-08-09T11:48:51.291Z,5.94
2022-08-09T11:53:03.269Z,5.80
2022-08-09T11:54:28.668Z,6.00
2022-08-09T11:57:47.699Z,6.01
2022-08-09T12:00:31.834Z,6.32
2022-08-09T12:03:31.972Z,6.41
2022-08-09T12:05:50.297Z,6.10
2022-08-09T12:08:22.205Z,6.22
2022-08-09T12:10:53.824Z,6.16
2022-08-09T12:14:08.035Z,5.83
2022-08-09T12:16:37.228Z,5.46
2022-08-09T12:19:09.233Z,5.62
2022-08-09T12:21:50.283Z,6.17
2022-08-09T12:24:24.383Z,5.84
2022-08-09T12:29:15.304Z,5.68
2022-08-09T12:30:01.562Z,5.72
2022-08-09T12:32:44.468Z,5.46
2022-08-09T12:35:13.127Z,5.70
2022-08-09T12:37:50.074Z,5.47
2022-08-09T12:40:19.461Z,5.94
2022-08-09T12:42:50.441Z,5.68
2022-08-09T12:45:34.031Z,5.55
2022-08-09T12:48:31.217Z,5.48
2022-08-09T12:50:59.866Z,5.39
2022-08-09T12:53:38.848Z,5.16
2022-08-09T12:56:43.135Z,5.15
2022-08-09T12:59:10.292Z,5.00
2022-08-09T13:01:46.876Z,6.95
2022-08-09T13:04:35.974Z,5.59
2022-08-09T13:07:14.561Z,5.30
2022-08-09T13:09:53.010Z,5.31
2022-08-09T13:12:23.913Z,5.27
2022-08-09T13:14:54.447Z,5.38
2022-08-09T13:18:03.318Z,4.97
2022-08-09T13:20:22.765Z,5.37
2022-08-09T13:23:05.606Z,4.86
2022-08-09T13:25:42.419Z,4.80
2022-08-09T13:28:18.718Z,4.66
2022-08-09T13:32:16.051Z,4.82
2022-08-09T13:33:54.503Z,4.81
2022-08-09T13:36:41.261Z,5.15
2022-08-09T13:41:17.446Z,5.05
2022-08-09T13:42:02.051Z,4.76
2022-08-09T13:44:32.225Z,4.57
2022-08-09T13:47:28.901Z,4.27
2022-08-09T13:50:01.015Z,4.30
2022-08-09T13:52:30.984Z,4.96
2022-08-09T13:55:04.381Z,4.47
2022-08-09T13:57:40.150Z,4.50
2022-08-09T14:00:12.912Z,5.05
2022-08-09T14:03:04.610Z,4.89
2022-08-09T15:50:03.965Z,2.51
2022-08-09T15:52:35.913Z,2.35
2022-08-09T16:16:11.799Z,2.05
2022-08-09T16:18:31.876Z,2.03
2022-08-09T16:21:00.352Z,2.00
2022-08-09T16:23:27.962Z,2.39
2022-08-09T16:26:02.590Z,2.38
2022-08-09T16:28:30.431Z,2.38
2022-08-09T16:31:01.253Z,2.30
2022-08-09T16:33:30.983Z,2.33
2022-08-09T16:36:11.709Z,2.47
2022-08-09T16:38:44.074Z,2.38
2022-08-09T16:41:24.706Z,2.28
2022-08-09T16:44:06.782Z,2.23
2022-08-09T16:46:37.684Z,2.15
2022-08-09T16:50:30.351Z,2.45
2022-08-09T16:52:10.513Z,2.39
2022-08-09T16:54:41.340Z,2.30
2022-08-09T16:57:10.728Z,2.54
2022-08-09T16:59:38.422Z,2.42
2022-08-09T17:02:13.164Z,2.45
2022-08-09T17:04:40.939Z,2.67
2022-08-09T17:08:43.876Z,2.48
2022-08-09T17:10:01.883Z,2.68
2022-08-09T17:12:31.704Z,2.50
2022-08-09T17:14:59.559Z,2.58
2022-08-09T17:17:28.510Z,2.44
2022-08-09T17:20:29.826Z,2.89
2022-08-09T17:22:50.005Z,3.02
2022-08-09T17:25:21.941Z,2.97
2022-08-09T17:27:53.626Z,2.88
2022-08-09T17:30:25.515Z,2.96
2022-08-09T17:33:00.982Z,2.59
2022-08-09T17:35:35.058Z,3.23
2022-08-09T17:38:14.450Z,3.06
2022-08-09T17:40:51.726Z,3.17
2022-08-09T17:43:33.581Z,3.14
2022-08-09T17:46:06.233Z,3.32
2022-08-09T17:48:51.606Z,3.25
2022-08-09T17:51:21.368Z,3.67
2022-08-09T17:53:52.979Z,3.49
2022-08-09T17:56:27.320Z,3.51
2022-08-09T17:58:57.459Z,3.58
2022-08-09T18:01:25.327Z,3.20
2022-08-09T18:04:10.524Z,3.55
2022-08-09T18:06:40.259Z,3.42
2022-08-09T18:09:10.911Z,3.52
2022-08-09T18:12:05.422Z,3.48
2022-08-09T18:14:31.446Z,3.54
2022-08-09T18:16:59.023Z,3.24
2022-08-09T18:21:00.796Z,3.35
2022-08-09T18:22:17.353Z,3.08
2022-08-09T18:24:47.035Z,3.37
2022-08-09T18:27:49.149Z,3.21
2022-08-09T18:30:40.621Z,3.54
2022-08-09T18:32:54.239Z,3.35
2022-08-09T18:35:59.312Z,3.14
2022-08-09T18:38:11.798Z,3.18
2022-08-09T18:40:40.337Z,3.30
2022-08-09T18:43:09.174Z,3.12
2022-08-09T18:46:49.609Z,3.26
2022-08-09T18:48:25.616Z,3.08
2022-08-09T18:50:59.591Z,2.87
2022-08-09T18:53:28.086Z,2.88
2022-08-09T18:56:15.659Z,3.00
2022-08-09T18:58:43.592Z,2.91
2022-08-09T19:01:12.895Z,2.84
2022-08-09T19:04:01.499Z,2.88
2022-08-09T19:06:29.515Z,2.83
2022-08-09T19:09:02.650Z,3.15
2022-08-09T19:11:37.448Z,3.01
2022-08-09T19:14:06.332Z,3.21
2022-08-09T19:16:35.932Z,2.84
2022-08-09T19:19:23.519Z,2.70
2022-08-09T19:22:04.374Z,2.93
2022-08-09T19:24:39.412Z,3.03
2022-08-09T19:27:22.395Z,2.89
2022-08-09T19:30:20.810Z,3.23
2022-08-09T19:32:37.637Z,3.12
2022-08-09T19:35:06.292Z,3.07
2022-08-09T19:37:47.010Z,3.06
2022-08-09T19:40:23.328Z,2.89
2022-08-09T19:43:00.976Z,3.06
2022-08-09T19:45:38.887Z,2.98
2022-08-09T19:48:07.658Z,3.02
2022-08-09T19:50:50.393Z,2.81
2022-08-09T19:53:21.055Z,2.87
2022-08-09T19:56:02.382Z,2.89
2022-08-09T19:58:34.202Z,2.85
2022-08-09T20:01:08.377Z,2.82
2022-08-09T20:04:18.362Z,2.99
2022-08-09T20:06:31.245Z,2.95
2022-08-09T20:09:00.939Z,2.89
2022-08-09T20:11:43.286Z,3.01
2022-08-09T20:14:16.708Z,3.49
2022-08-09T20:16:50.194Z,3.07
2022-08-09T20:19:47.423Z,3.08
2022-08-09T20:22:10.258Z,3.16
2022-08-09T20:24:54.204Z,2.87
2022-08-09T20:27:22.320Z,2.99
2022-08-09T20:29:50.174Z,3.17
2022-08-09T20:32:33.098Z,2.91
2022-08-09T20:35:02.273Z,2.91
2022-08-09T20:38:08.753Z,2.93
2022-08-09T20:40:26.887Z,3.04
2022-08-09T20:43:00.108Z,3.27
2022-08-09T20:45:59.316Z,3.19
2022-08-09T20:48:30.585Z,2.73
2022-08-09T20:50:59.771Z,2.83
2022-08-09T20:53:35.517Z,2.97
2022-08-09T20:56:20.045Z,2.93
2022-08-09T20:58:50.547Z,3.15
2022-08-09T21:01:35.267Z,2.74
2022-08-09T21:05:52.232Z,2.99
2022-08-09T21:06:57.781Z,3.13
2022-08-09T21:09:41.996Z,2.96
2022-08-09T21:14:48.496Z,3.07
2022-08-09T21:18:11.318Z,3.01
2022-08-09T21:20:22.710Z,3.05
2022-08-09T21:22:54.140Z,2.96
2022-08-09T21:25:23.141Z,3.04
2022-08-09T21:28:00.479Z,3.01
2022-08-09T21:30:28.104Z,2.83
2022-08-09T21:32:55.687Z,2.99
2022-08-09T21:35:24.953Z,3.18
2022-08-09T21:37:59.387Z,3.28
2022-08-09T21:40:30.865Z,3.08
2022-08-09T21:43:02.617Z,3.00
2022-08-09T21:45:30.591Z,3.13
2022-08-09T21:47:58.333Z,3.13
2022-08-09T21:50:35.862Z,2.98
2022-08-09T21:53:15.755Z,3.16
2022-08-09T21:55:51.886Z,2.98
2022-08-09T21:58:20.870Z,3.02
2022-08-09T22:00:56.825Z,2.96
2022-08-09T22:03:25.959Z,3.10
2022-08-09T22:05:54.956Z,2.91
2022-08-09T22:08:24.693Z,3.16
2022-08-09T22:11:49.842Z,3.05
2022-08-09T22:13:44.010Z,2.91
2022-08-09T22:16:11.733Z,2.83
2022-08-09T22:18:54.327Z,2.95
2022-08-09T22:21:45.246Z,3.05
2022-08-09T22:24:16.551Z,2.81
2022-08-09T22:26:51.130Z,3.00
2022-08-09T22:29:28.455Z,2.89
2022-08-09T22:32:30.303Z,2.87
2022-08-09T22:34:59.316Z,2.89
2022-08-09T22:37:39.899Z,3.09
2022-08-09T22:40:09.999Z,2.92
2022-08-09T22:42:37.858Z,3.03
2022-08-09T22:48:15.225Z,2.97
2022-08-09T22:48:16.877Z,3.08
2022-08-09T22:50:52.961Z,2.96
2022-08-09T22:53:21.026Z,2.94
2022-08-09T22:56:30.893Z,2.94
2022-08-09T22:58:38.055Z,3.07
2022-08-09T23:01:07.187Z,2.94
2022-08-09T23:04:03.908Z,2.83
2022-08-09T23:06:34.771Z,2.99
2022-08-09T23:09:05.935Z,2.79
2022-08-09T23:11:33.677Z,2.74
2022-08-09T23:14:01.319Z,2.92
2022-08-09T23:16:30.362Z,2.90
2022-08-09T23:18:57.966Z,2.94
2022-08-09T23:21:31.303Z,2.96
2022-08-09T23:24:06.530Z,3.06
2022-08-09T23:26:35.061Z,3.22
2022-08-09T23:29:02.840Z,2.75
2022-08-09T23:31:32.111Z,2.85
2022-08-09T23:33:59.800Z,2.74
2022-08-09T23:36:27.630Z,2.92
2022-08-09T23:38:55.353Z,3.01
2022-08-09T23:41:27.589Z,2.85
2022-08-09T23:43:58.161Z,2.99
2022-08-09T23:46:26.437Z,2.70
2022-08-09T23:48:55.628Z,2.83
2022-08-09T23:51:23.255Z,2.96
2022-08-09T23:53:52.509Z,3.21
2022-08-09T23:56:51.895Z,3.09
2022-08-09T23:59:07.827Z,3.21
